createdAt,value
2022-10-20T00:00:56.718Z,0.5
2022-10-20T00:02:06.836Z,0.5
2022-10-20T00:03:16.966Z,0.5
2022-10-20T00:05:37.201Z,0.4
2022-10-20T00:06:46.339Z,0.4
2022-10-20T00:07:55.477Z,0.4
2022-10-20T00:09:05.600Z,0.4
2022-10-20T00:10:15.708Z,0.4
2022-10-20T00:11:25.830Z,0.4
2022-10-20T00:12:35.951Z,0.4
2022-10-20T00:13:46.321Z,0.3
2022-10-20T00:14:56.185Z,0.3
2022-10-20T00:16:06.308Z,0.2
2022-10-20T00:17:16.421Z,0.2
2022-10-20T00:18:26.534Z,0.3
2022-10-20T00:19:35.692Z,0.3
2022-10-20T00:20:44.812Z,0.3
2022-10-20T00:21:54.929Z,0.3
2022-10-20T00:23:05.060Z,0.3
2022-10-20T00:24:15.166Z,0.3
2022-10-20T00:25:25.294Z,0.4
2022-10-20T00:26:35.669Z,0.4
2022-10-20T00:27:45.525Z,0.4
2022-10-20T00:28:55.652Z,0.4
2022-10-20T00:30:05.760Z,0.3
2022-10-20T00:31:15.879Z,0.2
2022-10-20T00:32:26.249Z,0.2
2022-10-20T00:33:36.115Z,0.2
2022-10-20T00:34:46.230Z,0.2
2022-10-20T00:35:55.623Z,0.2
2022-10-20T00:37:05.482Z,0.1
2022-10-20T00:38:15.611Z,0.1
2022-10-20T00:39:25.717Z,0.1
2022-10-20T00:40:36.098Z,0
2022-10-20T00:41:45.970Z,0
2022-10-20T00:42:56.079Z,0.1
2022-10-20T00:44:06.450Z,0
2022-10-20T00:45:16.309Z,0
2022-10-20T00:46:26.434Z,0
2022-10-20T00:47:36.557Z,0.1
2022-10-20T00:48:46.666Z,0
2022-10-20T00:49:56.790Z,0.1
2022-10-20T00:51:05.919Z,0.1
2022-10-20T00:52:16.043Z,0.1
2022-10-20T00:53:26.167Z,0.1
2022-10-20T00:54:36.271Z,0.2
2022-10-20T00:55:46.393Z,0.2
2022-10-20T00:56:56.522Z,0.2
2022-10-20T00:58:06.639Z,0.2
2022-10-20T00:59:17.007Z,0.1
2022-10-20T01:00:26.866Z,0.2
2022-10-20T01:01:36.980Z,0.1
2022-10-20T01:02:47.107Z,0.1
2022-10-20T01:03:57.235Z,0.1
2022-10-20T01:05:07.338Z,0.2
2022-10-20T01:07:26.604Z,0.2
2022-10-20T01:08:35.745Z,0.2
2022-10-20T01:10:55.002Z,0.2
2022-10-20T01:12:04.134Z,0.1
2022-10-20T01:13:13.272Z,0.1
2022-10-20T01:14:23.399Z,0.1
2022-10-20T01:15:33.501Z,0
2022-10-20T01:16:43.622Z,0.1
2022-10-20T01:17:53.756Z,0.1
2022-10-20T01:19:04.115Z,0.2
2022-10-20T01:20:13.990Z,0.2
2022-10-20T01:21:24.354Z,0.1
2022-10-20T01:22:34.226Z,0.1
2022-10-20T01:23:44.344Z,0.1
2022-10-20T01:24:54.446Z,0.1
2022-10-20T01:26:04.576Z,0.1
2022-10-20T01:27:14.685Z,0.1
2022-10-20T01:28:23.830Z,0
2022-10-20T01:29:33.939Z,0
2022-10-20T01:30:44.066Z,-0.1
2022-10-20T01:31:54.175Z,-0.1
2022-10-20T01:33:04.307Z,-0.2
2022-10-20T01:34:14.415Z,-0.2
2022-10-20T01:35:24.786Z,-0.2
2022-10-20T01:36:33.681Z,-0.2
2022-10-20T01:37:42.823Z,-0.2
2022-10-20T01:38:51.958Z,-0.2
2022-10-20T01:40:01.087Z,-0.1
2022-10-20T01:41:11.220Z,-0.1
2022-10-20T01:42:21.334Z,0
2022-10-20T01:43:31.704Z,0
2022-10-20T01:44:41.579Z,0
2022-10-20T01:45:51.688Z,0
2022-10-20T01:47:01.811Z,-0.1
2022-10-20T01:48:11.925Z,-0.1
2022-10-20T01:49:22.050Z,-0.2
2022-10-20T01:50:32.158Z,-0.2
2022-10-20T01:51:42.284Z,-0.3
2022-10-20T01:52:52.391Z,-0.3
2022-10-20T01:54:02.507Z,-0.2
2022-10-20T01:55:11.658Z,-0.2
2022-10-20T01:56:21.763Z,-0.2
2022-10-20T01:57:31.887Z,-0.2
2022-10-20T01:58:42.002Z,-0.3
2022-10-20T01:59:52.370Z,-0.3
2022-10-20T02:01:02.494Z,-0.3
2022-10-20T02:02:12.355Z,-0.3
2022-10-20T02:03:21.499Z,-0.3
2022-10-20T02:04:30.633Z,-0.3
2022-10-20T02:06:50.882Z,-0.3
2022-10-20T02:08:00.025Z,-0.3
2022-10-20T02:09:09.158Z,-0.3
2022-10-20T02:10:19.264Z,-0.3
2022-10-20T02:11:29.392Z,-0.2
2022-10-20T02:12:39.516Z,-0.2
2022-10-20T02:13:49.622Z,-0.2
2022-10-20T02:14:59.749Z,-0.2
2022-10-20T02:16:09.871Z,-0.2
2022-10-20T02:17:19.984Z,-0.2
2022-10-20T02:18:30.107Z,-0.2
2022-10-20T02:19:40.212Z,-0.2
2022-10-20T02:20:50.340Z,-0.2
2022-10-20T02:22:00.463Z,-0.2
2022-10-20T02:23:10.583Z,-0.2
2022-10-20T02:25:29.826Z,-0.3
2022-10-20T02:26:40.195Z,-0.3
2022-10-20T02:27:50.066Z,-0.3
2022-10-20T02:29:00.429Z,-0.3
2022-10-20T02:31:20.416Z,-0.2
2022-10-20T02:32:29.558Z,-0.2
2022-10-20T02:33:38.687Z,-0.3
2022-10-20T02:34:48.805Z,-0.3
2022-10-20T02:35:58.928Z,-0.2
2022-10-20T02:37:09.049Z,-0.3
2022-10-20T02:38:19.166Z,-0.3
2022-10-20T02:39:29.283Z,-0.3
2022-10-20T02:41:49.527Z,-0.3
2022-10-20T02:42:59.652Z,-0.3
2022-10-20T02:44:09.760Z,-0.3
2022-10-20T02:46:30.006Z,-0.1
2022-10-20T02:47:39.137Z,-0.1
2022-10-20T02:48:48.281Z,-0.1
2022-10-20T02:49:58.388Z,-0.1
2022-10-20T02:51:08.520Z,-0.2
2022-10-20T02:52:18.630Z,-0.1
2022-10-20T02:53:28.748Z,-0.1
2022-10-20T02:54:38.873Z,-0.1
2022-10-20T02:55:48.978Z,-0.2
2022-10-20T02:56:59.105Z,-0.2
2022-10-20T02:58:09.227Z,-0.3
2022-10-20T02:59:19.335Z,-0.3
2022-10-20T03:00:28.491Z,-0.3
2022-10-20T03:01:37.611Z,-0.2
2022-10-20T03:02:47.739Z,-0.2
2022-10-20T03:03:58.107Z,-0.2
2022-10-20T03:05:07.001Z,-0.2
2022-10-20T03:07:27.225Z,-0.2
2022-10-20T03:08:37.346Z,-0.1
2022-10-20T03:09:47.470Z,-0.1
2022-10-20T03:10:57.588Z,-0.1
2022-10-20T03:12:07.706Z,-0.1
2022-10-20T03:13:17.819Z,-0.1
2022-10-20T03:14:27.942Z,-0.2
2022-10-20T03:16:48.175Z,-0.2
2022-10-20T03:17:57.320Z,-0.2
2022-10-20T03:19:06.450Z,-0.2
2022-10-20T03:20:16.575Z,-0.2
2022-10-20T03:21:26.702Z,-0.3
2022-10-20T03:22:36.814Z,-0.3
2022-10-20T03:23:46.935Z,-0.3
2022-10-20T03:24:57.300Z,-0.3
2022-10-20T03:26:07.175Z,-0.2
2022-10-20T03:27:17.283Z,-0.2
2022-10-20T03:28:27.401Z,-0.2
2022-10-20T03:29:37.525Z,-0.2
2022-10-20T03:30:46.657Z,-0.2
2022-10-20T03:31:55.806Z,-0.2
2022-10-20T03:33:05.930Z,-0.2
2022-10-20T03:34:16.035Z,-0.1
2022-10-20T03:35:26.157Z,-0.1
2022-10-20T03:36:36.283Z,-0.1
2022-10-20T03:37:46.398Z,0
2022-10-20T03:38:56.508Z,0
2022-10-20T03:40:06.630Z,0
2022-10-20T03:41:16.745Z,0
2022-10-20T03:42:26.873Z,0
2022-10-20T03:43:36.007Z,0
2022-10-20T03:44:45.150Z,0
2022-10-20T03:45:55.268Z,0
2022-10-20T03:47:05.379Z,0
2022-10-20T03:48:15.500Z,0
2022-10-20T03:49:25.624Z,0
2022-10-20T03:50:35.735Z,0.1
2022-10-20T03:51:45.860Z,0.1
2022-10-20T03:52:55.968Z,0.1
2022-10-20T03:54:06.081Z,0.2
2022-10-20T03:55:16.201Z,0.2
2022-10-20T03:56:26.321Z,0.2
2022-10-20T03:57:36.453Z,0.2
2022-10-20T03:58:46.831Z,0.2
2022-10-20T03:59:55.970Z,0.2
2022-10-20T04:01:05.805Z,0.3
2022-10-20T04:02:15.913Z,0.3
2022-10-20T04:04:36.156Z,0.4
2022-10-20T04:05:46.280Z,0.4
2022-10-20T04:06:56.386Z,0.5
2022-10-20T04:08:06.517Z,0.5
2022-10-20T04:09:15.650Z,0.5
2022-10-20T04:10:24.783Z,0.4
2022-10-20T04:11:34.907Z,0.3
2022-10-20T04:12:44.061Z,0.3
2022-10-20T04:13:53.190Z,0.2
2022-10-20T04:15:03.316Z,0.2
2022-10-20T04:16:13.418Z,0.2
2022-10-20T04:17:23.548Z,0.1
2022-10-20T04:18:33.656Z,0.2
2022-10-20T04:19:43.780Z,0.2
2022-10-20T04:20:53.907Z,0.2
2022-10-20T04:22:04.027Z,0.3
2022-10-20T04:23:14.131Z,0.3
2022-10-20T04:24:24.255Z,0.3
2022-10-20T04:25:34.369Z,0.3
2022-10-20T04:26:44.493Z,0.3
2022-10-20T04:27:54.605Z,0.3
2022-10-20T04:29:03.745Z,0.3
2022-10-20T04:30:14.127Z,0.3
2022-10-20T04:31:23.973Z,0.3
2022-10-20T04:32:34.098Z,0.3
2022-10-20T04:33:44.475Z,0.3
2022-10-20T04:34:54.327Z,0.3
2022-10-20T04:37:14.569Z,0.3
2022-10-20T04:38:24.698Z,0.3
2022-10-20T04:39:34.804Z,0.3
2022-10-20T04:40:44.925Z,0.3
2022-10-20T04:41:55.046Z,0.3
2022-10-20T04:43:05.167Z,0.2
2022-10-20T04:45:24.422Z,0.2
2022-10-20T04:46:34.539Z,0.2
2022-10-20T04:47:44.655Z,0.2
2022-10-20T04:48:54.780Z,0.2
2022-10-20T04:50:04.897Z,0.2
2022-10-20T04:51:15.015Z,0.3
2022-10-20T04:52:25.131Z,0.3
2022-10-20T04:53:35.234Z,0.4
2022-10-20T04:54:45.359Z,0.5
2022-10-20T04:55:55.483Z,0.5
2022-10-20T04:57:05.606Z,0.5
2022-10-20T04:58:15.712Z,0.5
2022-10-20T04:59:25.956Z,0.5
2022-10-20T05:00:36.080Z,0.4
2022-10-20T05:01:46.204Z,0.4
2022-10-20T05:02:56.309Z,0.4
2022-10-20T05:04:06.440Z,0.4
2022-10-20T05:05:16.551Z,0.3
2022-10-20T05:06:26.661Z,0.3
2022-10-20T05:07:36.789Z,0.2
2022-10-20T05:08:46.909Z,0.2
2022-10-20T05:09:57.033Z,0.2
2022-10-20T05:11:07.148Z,0.2
2022-10-20T05:12:17.271Z,0.2
2022-10-20T05:13:27.373Z,0.2
2022-10-20T05:14:36.514Z,0.2
2022-10-20T05:15:46.641Z,0.2
2022-10-20T05:16:56.749Z,0.2
2022-10-20T05:18:06.874Z,0.1
2022-10-20T05:19:16.980Z,0.1
2022-10-20T05:20:27.108Z,0.2
2022-10-20T05:21:37.228Z,0.2
2022-10-20T05:22:46.366Z,0.2
2022-10-20T05:23:55.502Z,0.2
2022-10-20T05:25:05.616Z,0.2
2022-10-20T05:26:14.768Z,0.2
2022-10-20T05:27:23.907Z,0.2
2022-10-20T05:28:34.029Z,0.1
2022-10-20T05:29:44.141Z,0.1
2022-10-20T05:30:54.263Z,0.1
2022-10-20T05:32:04.384Z,0
2022-10-20T05:33:14.493Z,-0.1
2022-10-20T05:34:24.609Z,-0.2
2022-10-20T05:35:34.730Z,-0.2
2022-10-20T05:36:44.849Z,-0.1
2022-10-20T05:37:54.958Z,-0.1
2022-10-20T05:39:05.078Z,-0.1
2022-10-20T05:40:15.202Z,-0.1
2022-10-20T05:41:25.325Z,-0.1
2022-10-20T05:42:34.457Z,-0.1
2022-10-20T05:43:44.842Z,-0.1
2022-10-20T05:44:54.693Z,-0.1
2022-10-20T05:46:04.800Z,0
2022-10-20T05:47:14.926Z,0
2022-10-20T05:48:25.050Z,-0.1
2022-10-20T05:49:35.173Z,-0.1
2022-10-20T05:50:44.306Z,-0.1
2022-10-20T05:51:53.439Z,-0.1
2022-10-20T05:53:02.593Z,-0.1
2022-10-20T05:54:11.731Z,-0.1
2022-10-20T05:55:21.846Z,-0.1
2022-10-20T05:56:31.964Z,-0.1
2022-10-20T05:57:42.087Z,-0.1
2022-10-20T05:58:52.194Z,0
2022-10-20T06:00:02.314Z,0
2022-10-20T06:01:12.438Z,0.1
2022-10-20T06:02:22.559Z,0.1
2022-10-20T06:03:32.664Z,0.1
2022-10-20T06:04:42.788Z,0.2
2022-10-20T06:05:52.907Z,0.2
2022-10-20T06:07:03.024Z,0.3
2022-10-20T06:08:13.148Z,0.3
2022-10-20T06:09:22.283Z,0.3
2022-10-20T06:10:32.657Z,0.3
2022-10-20T06:11:42.513Z,0.4
2022-10-20T06:12:52.637Z,0.3
2022-10-20T06:14:02.759Z,0.3
2022-10-20T06:15:12.883Z,0.3
2022-10-20T06:16:22.993Z,0.4
2022-10-20T06:17:33.101Z,0.5
2022-10-20T06:18:43.225Z,0.6
2022-10-20T06:19:53.339Z,0.8
2022-10-20T06:21:03.464Z,1
2022-10-20T06:22:13.575Z,1.1
2022-10-20T06:23:23.695Z,1.1
2022-10-20T06:24:32.834Z,1.2
2022-10-20T06:25:42.953Z,1.3
2022-10-20T06:26:53.069Z,1.5
2022-10-20T06:28:03.187Z,1.6
2022-10-20T06:29:13.306Z,1.6
2022-10-20T06:30:23.425Z,1.7
2022-10-20T06:31:33.547Z,1.7
2022-10-20T06:32:43.676Z,1.8
2022-10-20T06:33:54.042Z,1.9
2022-10-20T06:35:03.894Z,1.9
2022-10-20T06:36:14.019Z,2
2022-10-20T06:37:24.147Z,2.1
2022-10-20T06:38:34.252Z,2.1
2022-10-20T06:39:43.391Z,2.2
2022-10-20T06:40:53.506Z,2.2
2022-10-20T06:42:03.637Z,2.3
2022-10-20T06:43:13.755Z,2.3
2022-10-20T06:44:23.855Z,2.3
2022-10-20T06:45:33.981Z,2.4
2022-10-20T06:46:44.101Z,2.5
2022-10-20T06:47:54.227Z,2.6
2022-10-20T06:49:04.339Z,2.6
2022-10-20T06:50:14.464Z,2.7
2022-10-20T06:51:24.567Z,2.7
2022-10-20T06:52:34.697Z,2.8
2022-10-20T06:53:44.815Z,2.9
2022-10-20T06:54:53.951Z,2.9
2022-10-20T06:56:03.098Z,3
2022-10-20T06:57:13.207Z,3.1
2022-10-20T06:58:23.323Z,3.3
2022-10-20T07:00:42.593Z,3.5
2022-10-20T07:01:51.725Z,3.6
2022-10-20T07:03:00.858Z,3.7
2022-10-20T07:05:21.096Z,3.9
2022-10-20T07:06:31.221Z,4
2022-10-20T07:07:41.349Z,4
2022-10-20T07:08:51.454Z,4.1
2022-10-20T07:10:01.578Z,4.2
2022-10-20T07:11:11.705Z,4.3
2022-10-20T07:12:22.073Z,4.4
2022-10-20T07:13:31.926Z,4.4
2022-10-20T07:14:42.056Z,4.5
2022-10-20T07:15:52.161Z,4.5
2022-10-20T07:17:02.288Z,4.6
2022-10-20T07:18:11.427Z,4.7
2022-10-20T07:19:21.546Z,4.7
2022-10-20T07:20:31.655Z,4.8
2022-10-20T07:21:41.773Z,4.9
2022-10-20T07:22:51.898Z,5
2022-10-20T07:24:02.004Z,5
2022-10-20T07:25:12.126Z,5.1
2022-10-20T07:26:22.521Z,5.2
2022-10-20T07:28:42.476Z,5.3
2022-10-20T07:29:51.621Z,5.3
2022-10-20T07:31:00.762Z,5.4
2022-10-20T07:32:10.883Z,5.5
2022-10-20T07:33:20.281Z,5.5
2022-10-20T07:34:29.153Z,5.6
2022-10-20T07:35:39.284Z,5.6
2022-10-20T07:36:49.386Z,5.6
2022-10-20T07:37:59.517Z,5.7
2022-10-20T07:39:09.637Z,5.7
2022-10-20T07:40:19.745Z,5.7
2022-10-20T07:41:30.124Z,5.8
2022-10-20T07:42:39.978Z,5.8
2022-10-20T07:43:50.100Z,5.9
2022-10-20T07:45:00.227Z,6
2022-10-20T07:46:10.349Z,6
2022-10-20T07:47:20.451Z,6.1
2022-10-20T07:48:30.579Z,6.1
2022-10-20T07:49:39.711Z,6.2
2022-10-20T07:51:59.953Z,6.4
2022-10-20T07:54:20.183Z,6.5
2022-10-20T07:55:29.318Z,6.6
2022-10-20T07:56:38.454Z,6.6
2022-10-20T07:57:48.583Z,6.7
2022-10-20T07:58:58.691Z,6.7
2022-10-20T08:00:08.813Z,6.7
2022-10-20T08:01:19.191Z,6.8
2022-10-20T08:02:29.051Z,6.9
2022-10-20T08:03:39.179Z,6.9
2022-10-20T08:04:49.284Z,7
2022-10-20T08:05:59.409Z,7.1
2022-10-20T08:07:09.516Z,7.2
2022-10-20T08:08:18.668Z,7.2
2022-10-20T08:09:27.804Z,7.2
2022-10-20T08:10:37.926Z,7.3
2022-10-20T08:12:58.155Z,7.4
2022-10-20T08:14:08.284Z,7.5
2022-10-20T08:15:18.394Z,7.5
2022-10-20T08:16:28.765Z,7.5
2022-10-20T08:17:38.630Z,7.5
2022-10-20T08:18:48.753Z,7.5
2022-10-20T08:19:58.869Z,7.6
2022-10-20T08:21:08.979Z,7.6
2022-10-20T08:22:19.101Z,7.6
2022-10-20T08:23:29.228Z,7.7
2022-10-20T08:24:38.363Z,7.7
2022-10-20T08:25:48.470Z,7.7
2022-10-20T08:26:58.594Z,7.7
2022-10-20T08:28:08.703Z,7.8
2022-10-20T08:29:18.820Z,7.8
2022-10-20T08:30:28.939Z,7.8
2022-10-20T08:31:39.062Z,7.8
2022-10-20T08:32:49.171Z,7.8
2022-10-20T08:33:58.318Z,7.9
2022-10-20T08:35:07.451Z,7.9
2022-10-20T08:36:16.604Z,7.9
2022-10-20T08:37:25.732Z,8
2022-10-20T08:38:35.855Z,8.1
2022-10-20T08:39:45.973Z,8.2
2022-10-20T08:40:56.092Z,8.2
2022-10-20T08:42:06.210Z,8.2
2022-10-20T08:43:16.335Z,8.2
2022-10-20T08:44:26.445Z,8.3
2022-10-20T08:45:36.562Z,8.3
2022-10-20T08:46:46.685Z,8.4
2022-10-20T08:47:56.806Z,8.5
2022-10-20T08:49:06.912Z,8.5
2022-10-20T08:50:17.027Z,8.6
2022-10-20T08:51:27.144Z,8.5
2022-10-20T08:52:36.276Z,8.5
2022-10-20T08:53:46.400Z,8.6
2022-10-20T08:54:56.529Z,8.6
2022-10-20T08:56:06.631Z,8.7
2022-10-20T08:57:16.752Z,8.7
2022-10-20T08:58:26.876Z,8.8
2022-10-20T08:59:37.257Z,8.8
2022-10-20T09:00:47.113Z,8.8
2022-10-20T09:01:57.220Z,8.9
2022-10-20T09:03:07.352Z,8.9
2022-10-20T09:04:17.456Z,8.9
2022-10-20T09:05:27.588Z,8.9
2022-10-20T09:06:37.693Z,9
2022-10-20T09:07:46.839Z,9
2022-10-20T09:08:56.953Z,9.1
2022-10-20T09:10:07.078Z,9.1
2022-10-20T09:11:17.181Z,9.2
2022-10-20T09:12:27.314Z,9.2
2022-10-20T09:13:37.434Z,9.3
2022-10-20T09:14:47.811Z,9.3
2022-10-20T09:15:57.661Z,9.4
2022-10-20T09:17:07.775Z,9.5
2022-10-20T09:18:17.902Z,9.5
2022-10-20T09:19:28.011Z,9.5
2022-10-20T09:20:38.134Z,9.6
2022-10-20T09:21:48.247Z,9.6
2022-10-20T09:22:57.384Z,9.7
2022-10-20T09:24:07.508Z,9.7
2022-10-20T09:25:17.618Z,9.7
2022-10-20T09:26:27.740Z,9.7
2022-10-20T09:27:37.851Z,9.8
2022-10-20T09:28:47.972Z,9.8
2022-10-20T09:29:58.097Z,9.8
2022-10-20T09:31:07.228Z,9.8
2022-10-20T09:32:16.368Z,9.8
2022-10-20T09:33:26.486Z,9.8
2022-10-20T09:34:35.637Z,9.9
2022-10-20T09:35:44.774Z,9.9
2022-10-20T09:36:54.890Z,10
2022-10-20T09:38:04.993Z,9.8
2022-10-20T09:39:15.130Z,9.8
2022-10-20T09:40:25.231Z,9.8
2022-10-20T09:41:35.357Z,9.9
2022-10-20T09:42:45.483Z,9.9
2022-10-20T09:43:55.602Z,10
2022-10-20T09:45:05.701Z,10.1
2022-10-20T09:46:15.822Z,10.1
2022-10-20T09:47:25.948Z,10.2
2022-10-20T09:48:36.073Z,10.1
2022-10-20T09:49:46.191Z,10.1
2022-10-20T09:50:55.312Z,10.2
2022-10-20T09:52:05.432Z,10.2
2022-10-20T09:53:15.560Z,10.1
2022-10-20T09:55:35.776Z,10
2022-10-20T09:56:45.911Z,10
2022-10-20T09:57:56.012Z,10.1
2022-10-20T09:59:06.136Z,10.2
2022-10-20T10:00:16.407Z,10.2
2022-10-20T10:01:25.537Z,10.3
2022-10-20T10:02:34.939Z,10.4
2022-10-20T10:03:43.825Z,10.3
2022-10-20T10:04:53.000Z,10.3
2022-10-20T10:06:04.054Z,10.4
2022-10-20T10:07:14.179Z,10.5
2022-10-20T10:08:24.294Z,10.4
2022-10-20T10:09:34.411Z,10.5
2022-10-20T10:10:44.516Z,10.4
2022-10-20T10:11:54.643Z,10.4
2022-10-20T10:13:04.760Z,10.4
2022-10-20T10:14:14.884Z,10.5
2022-10-20T10:15:24.987Z,10.6
2022-10-20T10:16:35.108Z,10.7
2022-10-20T10:17:45.232Z,10.8
2022-10-20T10:18:54.369Z,10.8
2022-10-20T10:20:04.479Z,10.8
2022-10-20T10:21:14.602Z,10.8
2022-10-20T10:22:24.727Z,10.9
2022-10-20T10:23:34.832Z,10.9
2022-10-20T10:24:44.949Z,10.9
2022-10-20T10:25:55.066Z,10.9
2022-10-20T10:27:04.213Z,11
2022-10-20T10:28:13.357Z,11.1
2022-10-20T10:29:23.462Z,11.2
2022-10-20T10:30:33.581Z,11.2
2022-10-20T10:31:42.737Z,11.2
2022-10-20T10:32:51.856Z,11.3
2022-10-20T10:34:01.988Z,11.3
2022-10-20T10:35:12.102Z,11.3
2022-10-20T10:36:22.207Z,11.3
2022-10-20T10:37:32.331Z,11.3
2022-10-20T10:38:42.444Z,11.3
2022-10-20T10:39:52.561Z,11.4
2022-10-20T10:41:02.686Z,11.4
2022-10-20T10:42:12.805Z,11.5
2022-10-20T10:43:22.931Z,11.6
2022-10-20T10:44:33.033Z,11.7
2022-10-20T10:45:43.156Z,11.7
2022-10-20T10:46:53.281Z,11.6
2022-10-20T10:48:02.660Z,11.6
2022-10-20T10:49:12.520Z,11.6
2022-10-20T10:50:22.649Z,11.7
2022-10-20T10:51:32.772Z,11.7
2022-10-20T10:52:42.886Z,11.7
2022-10-20T10:53:53.003Z,11.8
2022-10-20T10:55:03.108Z,11.8
2022-10-20T10:56:12.261Z,11.8
2022-10-20T10:57:22.381Z,11.8
2022-10-20T10:58:32.740Z,11.8
2022-10-20T10:59:42.603Z,11.8
2022-10-20T11:00:52.724Z,11.9
2022-10-20T11:02:02.847Z,12
2022-10-20T11:03:12.951Z,12
2022-10-20T11:04:23.087Z,12.1
2022-10-20T11:05:33.456Z,12.1
2022-10-20T11:06:43.317Z,12.1
2022-10-20T11:07:53.437Z,12.1
2022-10-20T11:09:03.558Z,12
2022-10-20T11:10:13.660Z,12.1
2022-10-20T11:11:22.796Z,12.1
2022-10-20T11:12:32.911Z,12.1
2022-10-20T11:14:53.148Z,12.1
2022-10-20T11:16:03.269Z,12.2
2022-10-20T11:17:13.656Z,12.2
2022-10-20T11:18:23.502Z,12.2
2022-10-20T11:19:33.627Z,12.2
2022-10-20T11:20:42.776Z,12.2
2022-10-20T11:21:51.905Z,12.2
2022-10-20T11:23:02.012Z,12.3
2022-10-20T11:24:11.164Z,12.3
2022-10-20T11:25:20.290Z,12.3
2022-10-20T11:26:30.409Z,12.2
2022-10-20T11:27:40.541Z,12.1
2022-10-20T11:28:50.643Z,12.2
2022-10-20T11:30:00.764Z,12.3
2022-10-20T11:31:10.883Z,12.4
2022-10-20T11:32:21.008Z,12.5
2022-10-20T11:33:31.117Z,12.6
2022-10-20T11:34:41.241Z,12.6
2022-10-20T11:35:51.355Z,12.7
2022-10-20T11:37:01.477Z,12.8
2022-10-20T11:38:11.584Z,12.8
2022-10-20T11:40:31.825Z,12.8
2022-10-20T11:41:41.223Z,12.8
2022-10-20T11:42:51.084Z,12.9
2022-10-20T11:44:01.186Z,13
2022-10-20T11:45:11.308Z,13
2022-10-20T11:46:21.425Z,13
2022-10-20T11:47:31.803Z,13
2022-10-20T11:48:41.656Z,12.9
2022-10-20T11:49:50.809Z,12.8
2022-10-20T11:50:59.941Z,12.9
2022-10-20T11:52:10.071Z,13
2022-10-20T11:53:20.179Z,13
2022-10-20T11:54:29.328Z,13
2022-10-20T11:56:48.567Z,13
2022-10-20T11:57:58.693Z,13
2022-10-20T11:59:08.816Z,13
2022-10-20T12:00:18.936Z,12.9
2022-10-20T12:01:29.042Z,12.8
2022-10-20T12:02:39.162Z,12.8
2022-10-20T12:03:49.284Z,12.8
2022-10-20T12:04:59.401Z,12.9
2022-10-20T12:06:09.522Z,12.9
2022-10-20T12:07:19.625Z,13
2022-10-20T12:08:30.010Z,13.1
2022-10-20T12:09:39.879Z,13
2022-10-20T12:10:49.006Z,13
2022-10-20T12:11:59.372Z,13
2022-10-20T12:13:09.230Z,13
2022-10-20T12:14:19.365Z,13
2022-10-20T12:15:29.467Z,13.1
2022-10-20T12:16:39.592Z,13.2
2022-10-20T12:17:49.715Z,13.2
2022-10-20T12:20:09.937Z,13.1
2022-10-20T12:21:19.000Z,13
2022-10-20T12:22:28.229Z,13.1
2022-10-20T12:23:38.334Z,13
2022-10-20T12:24:47.481Z,13
2022-10-20T12:25:56.617Z,13.1
2022-10-20T12:27:06.741Z,13.1
2022-10-20T12:28:16.845Z,13.1
2022-10-20T12:29:26.963Z,13.1
2022-10-20T12:30:37.085Z,13
2022-10-20T12:32:57.326Z,12.9
2022-10-20T12:34:07.442Z,12.9
2022-10-20T12:35:17.552Z,12.9
2022-10-20T12:36:27.672Z,12.9
2022-10-20T12:38:47.916Z,12.9
2022-10-20T12:39:57.062Z,12.9
2022-10-20T12:41:06.196Z,13
2022-10-20T12:42:16.315Z,13
2022-10-20T12:43:26.422Z,13
2022-10-20T12:44:36.541Z,12.9
2022-10-20T12:45:46.670Z,12.9
2022-10-20T12:48:06.891Z,13
2022-10-20T12:49:17.012Z,13
2022-10-20T12:50:27.137Z,13
2022-10-20T12:51:37.243Z,13
2022-10-20T12:52:47.367Z,13
2022-10-20T12:53:57.489Z,13
2022-10-20T12:55:07.595Z,13
2022-10-20T12:56:16.743Z,13
2022-10-20T12:57:26.861Z,12.9
2022-10-20T12:58:36.968Z,12.9
2022-10-20T12:59:47.092Z,13
2022-10-20T13:00:57.215Z,13
2022-10-20T13:02:07.334Z,13
2022-10-20T13:03:17.446Z,12.9
2022-10-20T13:04:27.552Z,13
2022-10-20T13:05:36.705Z,13
2022-10-20T13:06:45.837Z,13
2022-10-20T13:07:55.966Z,13.1
2022-10-20T13:09:06.074Z,13.1
2022-10-20T13:10:16.198Z,13.1
2022-10-20T13:11:26.317Z,13.2
2022-10-20T13:12:36.419Z,13.3
2022-10-20T13:13:46.539Z,13.3
2022-10-20T13:14:56.657Z,13.3
2022-10-20T13:16:06.779Z,13.3
2022-10-20T13:17:16.906Z,13.2
2022-10-20T13:18:27.271Z,13.1
2022-10-20T13:19:37.125Z,13
2022-10-20T13:20:47.259Z,13
2022-10-20T13:21:56.375Z,13
2022-10-20T13:23:06.499Z,13
2022-10-20T13:24:16.615Z,13
2022-10-20T13:25:26.991Z,12.9
2022-10-20T13:26:36.858Z,12.9
2022-10-20T13:27:46.981Z,12.9
2022-10-20T13:28:57.082Z,12.9
2022-10-20T13:30:07.205Z,12.9
2022-10-20T13:31:17.335Z,12.9
2022-10-20T13:32:27.440Z,12.9
2022-10-20T13:33:37.565Z,12.9
2022-10-20T13:34:47.688Z,13
2022-10-20T13:35:57.788Z,13
2022-10-20T13:37:06.927Z,13
2022-10-20T13:38:17.049Z,13
2022-10-20T13:39:27.167Z,13.1
2022-10-20T13:40:37.283Z,13
2022-10-20T13:41:47.411Z,13
2022-10-20T13:42:57.518Z,13
2022-10-20T13:44:07.633Z,13.1
2022-10-20T13:45:17.758Z,13.1
2022-10-20T13:46:27.878Z,13.1
2022-10-20T13:47:37.999Z,13.2
2022-10-20T13:48:48.104Z,13.1
2022-10-20T13:49:58.232Z,13.1
2022-10-20T13:51:08.338Z,13.2
2022-10-20T13:52:17.477Z,13.2
2022-10-20T13:53:27.599Z,13.2
2022-10-20T13:54:37.718Z,13.2
2022-10-20T13:55:47.834Z,13.1
2022-10-20T13:56:57.950Z,13.1
2022-10-20T13:58:08.059Z,13.1
2022-10-20T13:59:18.180Z,13
2022-10-20T14:00:28.298Z,13
2022-10-20T14:01:38.420Z,13
2022-10-20T14:02:48.541Z,13
2022-10-20T14:03:58.645Z,13
2022-10-20T14:05:08.770Z,12.9
2022-10-20T14:06:18.892Z,12.9
2022-10-20T14:07:28.275Z,12.8
2022-10-20T14:08:38.135Z,12.8
2022-10-20T14:09:48.263Z,12.8
2022-10-20T14:10:58.371Z,12.8
2022-10-20T14:12:08.489Z,12.8
2022-10-20T14:13:18.611Z,12.8
2022-10-20T14:14:28.725Z,12.9
2022-10-20T14:15:38.843Z,12.9
2022-10-20T14:16:48.966Z,12.9
2022-10-20T14:17:59.089Z,12.9
2022-10-20T14:19:08.233Z,12.9
2022-10-20T14:20:17.365Z,12.8
2022-10-20T14:21:26.496Z,12.9
2022-10-20T14:22:35.627Z,12.9
2022-10-20T14:23:45.747Z,12.8
2022-10-20T14:24:55.871Z,12.8
2022-10-20T14:26:05.980Z,12.8
2022-10-20T14:27:16.098Z,12.8
2022-10-20T14:28:26.475Z,12.8
2022-10-20T14:29:36.334Z,12.8
2022-10-20T14:30:46.455Z,12.8
2022-10-20T14:31:56.572Z,12.8
2022-10-20T14:33:06.695Z,12.7
2022-10-20T14:34:16.814Z,12.8
2022-10-20T14:35:26.933Z,12.8
2022-10-20T14:36:37.040Z,12.7
2022-10-20T14:37:46.185Z,12.7
2022-10-20T14:40:06.424Z,12.5
2022-10-20T14:41:16.543Z,12.5
2022-10-20T14:42:26.644Z,12.4
2022-10-20T14:43:36.780Z,12.4
2022-10-20T14:45:57.006Z,12.3
2022-10-20T14:47:07.131Z,12.3
2022-10-20T14:48:17.239Z,12.2
2022-10-20T14:49:27.358Z,12.1
2022-10-20T14:50:36.494Z,12.1
2022-10-20T14:51:46.615Z,12.1
2022-10-20T14:52:56.979Z,12.1
2022-10-20T14:54:06.842Z,12.1
2022-10-20T14:56:27.082Z,12
2022-10-20T14:57:36.220Z,11.9
2022-10-20T14:58:45.369Z,12
2022-10-20T14:59:55.483Z,11.9
2022-10-20T15:01:05.603Z,11.8
2022-10-20T15:02:15.992Z,11.7
2022-10-20T15:03:25.840Z,11.7
2022-10-20T15:04:35.947Z,11.7
2022-10-20T15:05:46.063Z,11.6
2022-10-20T15:06:56.189Z,11.6
2022-10-20T15:08:06.557Z,11.5
2022-10-20T15:09:16.417Z,11.4
2022-10-20T15:10:25.556Z,11.4
2022-10-20T15:11:34.705Z,11.3
2022-10-20T15:12:44.823Z,11.3
2022-10-20T15:13:54.928Z,11.3
2022-10-20T15:15:05.049Z,11.3
2022-10-20T15:16:15.172Z,11.2
2022-10-20T15:17:25.285Z,11.2
2022-10-20T15:18:35.398Z,11.1
2022-10-20T15:19:45.525Z,11.1
2022-10-20T15:20:55.632Z,11.1
2022-10-20T15:22:05.760Z,11.1
2022-10-20T15:23:15.884Z,11.1
2022-10-20T15:24:25.990Z,11.1
2022-10-20T15:25:36.120Z,11
2022-10-20T15:26:45.252Z,11
2022-10-20T15:27:55.364Z,10.9
2022-10-20T15:29:05.486Z,10.9
2022-10-20T15:30:15.848Z,10.9
2022-10-20T15:31:25.713Z,10.8
2022-10-20T15:32:36.081Z,10.8
2022-10-20T15:33:45.944Z,10.8
2022-10-20T15:34:56.069Z,10.8
2022-10-20T15:36:06.189Z,10.7
2022-10-20T15:37:16.300Z,10.7
2022-10-20T15:38:26.428Z,10.6
2022-10-20T15:39:36.549Z,10.6
2022-10-20T15:40:46.649Z,10.6
2022-10-20T15:43:05.901Z,10.4
2022-10-20T15:44:16.027Z,10.4
2022-10-20T15:45:26.152Z,10.3
2022-10-20T15:46:36.261Z,10.2
2022-10-20T15:48:56.491Z,10.2
2022-10-20T15:50:06.614Z,10.2
2022-10-20T15:51:16.982Z,10.1
2022-10-20T15:52:26.843Z,10.1
2022-10-20T15:53:36.967Z,10.1
2022-10-20T15:54:47.086Z,10.1
2022-10-20T15:55:57.207Z,10
2022-10-20T15:57:06.335Z,10
2022-10-20T15:58:16.457Z,10
2022-10-20T15:59:26.579Z,10
2022-10-20T16:00:36.940Z,10
2022-10-20T16:01:46.805Z,10
2022-10-20T16:02:56.929Z,10
2022-10-20T16:04:07.054Z,10
2022-10-20T16:06:27.282Z,9.9
2022-10-20T16:07:36.426Z,9.9
2022-10-20T16:08:45.553Z,9.9
2022-10-20T16:09:55.677Z,9.8
2022-10-20T16:11:06.042Z,9.7
2022-10-20T16:12:15.914Z,9.6
2022-10-20T16:13:26.037Z,9.6
2022-10-20T16:14:36.154Z,9.6
2022-10-20T16:15:46.258Z,9.7
2022-10-20T16:16:56.388Z,9.6
2022-10-20T16:18:06.493Z,9.6
2022-10-20T16:19:16.624Z,9.5
2022-10-20T16:20:25.756Z,9.5
2022-10-20T16:21:34.896Z,9.5
2022-10-20T16:22:45.005Z,9.4
2022-10-20T16:23:55.122Z,9.4
2022-10-20T16:25:05.243Z,9.4
2022-10-20T16:26:15.365Z,9.4
2022-10-20T16:27:25.484Z,9.3
2022-10-20T16:28:35.604Z,9.3
2022-10-20T16:29:45.712Z,9.3
2022-10-20T16:30:55.831Z,9.3
2022-10-20T16:32:05.954Z,9.3
2022-10-20T16:33:16.069Z,9.2
2022-10-20T16:34:26.197Z,9.2